sensor_id;sensor_type;location;lat;lon;timestamp;P1;durP1;ratioP1;P2;durP2;ratioP2
27412;SDS011;14871;52.702;5.230;2023-04-25T00:00:28;16.45;;;3.30;;
27412;SDS011;14871;52.702;5.230;2023-04-25T00:02:54;18.20;;;4.03;;
27412;SDS011;14871;52.702;5.230;2023-04-25T00:05:22;16.25;;;3.20;;
27412;SDS011;14871;52.702;5.230;2023-04-25T00:07:49;12.90;;;3.13;;
27412;SDS011;14871;52.702;5.230;2023-04-25T00:10:15;15.20;;;3.22;;
27412;SDS011;14871;52.702;5.230;2023-04-25T00:12:42;12.90;;;3.88;;
27412;SDS011;14871;52.702;5.230;2023-04-25T00:15:08;16.70;;;3.63;;
27412;SDS011;14871;52.702;5.230;2023-04-25T00:17:34;9.90;;;3.08;;
27412;SDS011;14871;52.702;5.230;2023-04-25T00:20:01;10.95;;;3.03;;
27412;SDS011;14871;52.702;5.230;2023-04-25T00:22:30;9.75;;;2.42;;
27412;SDS011;14871;52.702;5.230;2023-04-25T00:25:00;13.50;;;2.95;;
27412;SDS011;14871;52.702;5.230;2023-04-25T00:27:26;15.10;;;2.67;;
27412;SDS011;14871;52.702;5.230;2023-04-25T00:29:52;9.10;;;2.60;;
27412;SDS011;14871;52.702;5.230;2023-04-25T00:32:18;7.43;;;2.65;;
27412;SDS011;14871;52.702;5.230;2023-04-25T00:34:44;19.98;;;3.60;;
27412;SDS011;14871;52.702;5.230;2023-04-25T00:37:10;11.60;;;2.80;;
27412;SDS011;14871;52.702;5.230;2023-04-25T00:39:38;13.10;;;2.95;;
27412;SDS011;14871;52.702;5.230;2023-04-25T00:42:04;12.20;;;2.90;;
27412;SDS011;14871;52.702;5.230;2023-04-25T00:44:30;15.02;;;3.00;;
27412;SDS011;14871;52.702;5.230;2023-04-25T00:46:57;10.43;;;2.70;;
27412;SDS011;14871;52.702;5.230;2023-04-25T00:49:23;17.48;;;3.50;;
27412;SDS011;14871;52.702;5.230;2023-04-25T00:51:50;15.52;;;4.25;;
27412;SDS011;14871;52.702;5.230;2023-04-25T00:54:15;10.45;;;2.65;;
27412;SDS011;14871;52.702;5.230;2023-04-25T00:56:42;13.38;;;3.50;;
27412;SDS011;14871;52.702;5.230;2023-04-25T00:59:11;10.60;;;2.70;;
27412;SDS011;14871;52.702;5.230;2023-04-25T01:01:38;10.35;;;3.28;;
27412;SDS011;14871;52.702;5.230;2023-04-25T01:04:04;10.15;;;2.50;;
27412;SDS011;14871;52.702;5.230;2023-04-25T01:06:30;10.98;;;3.05;;
27412;SDS011;14871;52.702;5.230;2023-04-25T01:08:58;12.40;;;3.42;;
27412;SDS011;14871;52.702;5.230;2023-04-25T01:11:24;19.05;;;3.05;;
27412;SDS011;14871;52.702;5.230;2023-04-25T01:13:50;12.90;;;3.10;;
27412;SDS011;14871;52.702;5.230;2023-04-25T01:16:16;14.98;;;3.30;;
27412;SDS011;14871;52.702;5.230;2023-04-25T01:18:42;8.63;;;2.58;;
27412;SDS011;14871;52.702;5.230;2023-04-25T01:21:09;12.02;;;2.60;;
27412;SDS011;14871;52.702;5.230;2023-04-25T01:23:36;10.55;;;3.00;;
27412;SDS011;14871;52.702;5.230;2023-04-25T01:26:03;17.38;;;3.00;;
27412;SDS011;14871;52.702;5.230;2023-04-25T01:28:30;16.13;;;3.00;;
27412;SDS011;14871;52.702;5.230;2023-04-25T01:30:59;11.85;;;3.13;;
27412;SDS011;14871;52.702;5.230;2023-04-25T01:33:25;16.48;;;3.08;;
27412;SDS011;14871;52.702;5.230;2023-04-25T01:35:51;14.35;;;3.38;;
27412;SDS011;14871;52.702;5.230;2023-04-25T01:38:17;17.30;;;3.03;;
27412;SDS011;14871;52.702;5.230;2023-04-25T01:40:43;19.52;;;3.22;;
27412;SDS011;14871;52.702;5.230;2023-04-25T01:43:12;15.77;;;3.53;;
27412;SDS011;14871;52.702;5.230;2023-04-25T01:45:39;16.98;;;4.13;;
27412;SDS011;14871;52.702;5.230;2023-04-25T01:48:09;20.85;;;3.33;;
27412;SDS011;14871;52.702;5.230;2023-04-25T01:50:37;13.38;;;3.08;;
27412;SDS011;14871;52.702;5.230;2023-04-25T01:53:07;18.02;;;4.35;;
27412;SDS011;14871;52.702;5.230;2023-04-25T01:55:34;12.10;;;3.97;;
27412;SDS011;14871;52.702;5.230;2023-04-25T01:58:01;17.98;;;2.90;;
27412;SDS011;14871;52.702;5.230;2023-04-25T02:00:28;16.20;;;3.20;;
27412;SDS011;14871;52.702;5.230;2023-04-25T02:02:57;10.82;;;3.00;;
27412;SDS011;14871;52.702;5.230;2023-04-25T02:05:23;14.10;;;3.25;;
27412;SDS011;14871;52.702;5.230;2023-04-25T02:07:49;16.13;;;2.90;;
27412;SDS011;14871;52.702;5.230;2023-04-25T02:10:15;14.15;;;3.00;;
27412;SDS011;14871;52.702;5.230;2023-04-25T02:12:41;12.48;;;2.80;;
27412;SDS011;14871;52.702;5.230;2023-04-25T02:15:07;11.63;;;2.70;;
27412;SDS011;14871;52.702;5.230;2023-04-25T02:17:33;12.70;;;3.13;;
27412;SDS011;14871;52.702;5.230;2023-04-25T02:19:59;19.27;;;3.15;;
27412;SDS011;14871;52.702;5.230;2023-04-25T02:22:25;15.80;;;3.03;;
27412;SDS011;14871;52.702;5.230;2023-04-25T02:24:54;16.02;;;3.15;;
27412;SDS011;14871;52.702;5.230;2023-04-25T02:27:20;13.38;;;2.25;;
27412;SDS011;14871;52.702;5.230;2023-04-25T02:29:45;14.20;;;2.55;;
27412;SDS011;14871;52.702;5.230;2023-04-25T02:32:11;14.82;;;3.08;;
27412;SDS011;14871;52.702;5.230;2023-04-25T02:34:37;16.70;;;3.13;;
27412;SDS011;14871;52.702;5.230;2023-04-25T02:37:03;16.60;;;3.08;;
27412;SDS011;14871;52.702;5.230;2023-04-25T02:39:29;12.93;;;2.08;;
27412;SDS011;14871;52.702;5.230;2023-04-25T02:41:55;11.63;;;2.60;;
27412;SDS011;14871;52.702;5.230;2023-04-25T02:44:20;12.10;;;2.35;;
27412;SDS011;14871;52.702;5.230;2023-04-25T02:46:46;16.30;;;2.35;;
27412;SDS011;14871;52.702;5.230;2023-04-25T02:49:12;10.70;;;2.20;;
27412;SDS011;14871;52.702;5.230;2023-04-25T02:51:38;11.73;;;2.47;;
27412;SDS011;14871;52.702;5.230;2023-04-25T02:54:04;12.50;;;1.95;;
27412;SDS011;14871;52.702;5.230;2023-04-25T02:56:31;7.72;;;1.90;;
27412;SDS011;14871;52.702;5.230;2023-04-25T02:58:57;8.57;;;1.80;;
27412;SDS011;14871;52.702;5.230;2023-04-25T03:01:23;10.98;;;2.20;;
27412;SDS011;14871;52.702;5.230;2023-04-25T03:03:49;9.50;;;2.28;;
27412;SDS011;14871;52.702;5.230;2023-04-25T03:06:15;8.10;;;1.98;;
27412;SDS011;14871;52.702;5.230;2023-04-25T03:08:41;7.75;;;1.98;;
27412;SDS011;14871;52.702;5.230;2023-04-25T03:11:06;8.90;;;2.33;;
27412;SDS011;14871;52.702;5.230;2023-04-25T03:13:32;8.55;;;1.80;;
27412;SDS011;14871;52.702;5.230;2023-04-25T03:15:58;12.07;;;2.40;;
27412;SDS011;14871;52.702;5.230;2023-04-25T03:18:24;15.95;;;2.35;;
27412;SDS011;14871;52.702;5.230;2023-04-25T03:20:50;9.20;;;2.13;;
27412;SDS011;14871;52.702;5.230;2023-04-25T03:23:16;10.48;;;2.25;;
27412;SDS011;14871;52.702;5.230;2023-04-25T03:25:42;16.50;;;2.17;;
27412;SDS011;14871;52.702;5.230;2023-04-25T03:28:08;12.07;;;2.38;;
27412;SDS011;14871;52.702;5.230;2023-04-25T03:30:34;11.85;;;3.83;;
27412;SDS011;14871;52.702;5.230;2023-04-25T03:32:59;9.02;;;2.30;;
27412;SDS011;14871;52.702;5.230;2023-04-25T03:35:25;11.02;;;2.20;;
27412;SDS011;14871;52.702;5.230;2023-04-25T03:37:51;10.30;;;2.25;;
27412;SDS011;14871;52.702;5.230;2023-04-25T03:40:17;12.57;;;2.38;;
27412;SDS011;14871;52.702;5.230;2023-04-25T03:42:43;12.90;;;2.50;;
27412;SDS011;14871;52.702;5.230;2023-04-25T03:45:09;7.82;;;2.10;;
27412;SDS011;14871;52.702;5.230;2023-04-25T03:47:36;9.15;;;1.65;;
27412;SDS011;14871;52.702;5.230;2023-04-25T03:50:02;9.10;;;1.70;;
27412;SDS011;14871;52.702;5.230;2023-04-25T03:52:28;12.13;;;2.42;;
27412;SDS011;14871;52.702;5.230;2023-04-25T03:54:54;9.98;;;1.58;;
27412;SDS011;14871;52.702;5.230;2023-04-25T03:57:20;7.93;;;1.80;;
27412;SDS011;14871;52.702;5.230;2023-04-25T03:59:46;9.57;;;1.92;;
27412;SDS011;14871;52.702;5.230;2023-04-25T04:02:12;11.27;;;1.95;;
27412;SDS011;14871;52.702;5.230;2023-04-25T04:04:38;9.38;;;2.08;;
27412;SDS011;14871;52.702;5.230;2023-04-25T04:07:04;11.23;;;2.15;;
27412;SDS011;14871;52.702;5.230;2023-04-25T04:09:30;9.23;;;2.20;;
27412;SDS011;14871;52.702;5.230;2023-04-25T04:11:56;8.18;;;1.67;;
27412;SDS011;14871;52.702;5.230;2023-04-25T04:14:22;13.05;;;2.05;;
27412;SDS011;14871;52.702;5.230;2023-04-25T04:16:48;4.60;;;1.55;;
27412;SDS011;14871;52.702;5.230;2023-04-25T04:19:15;14.13;;;2.10;;
27412;SDS011;14871;52.702;5.230;2023-04-25T04:21:41;8.43;;;1.98;;
27412;SDS011;14871;52.702;5.230;2023-04-25T04:24:07;11.88;;;2.20;;
27412;SDS011;14871;52.702;5.230;2023-04-25T04:26:33;7.40;;;1.92;;
27412;SDS011;14871;52.702;5.230;2023-04-25T04:28:59;9.88;;;1.88;;
27412;SDS011;14871;52.702;5.230;2023-04-25T04:31:25;10.30;;;2.00;;
27412;SDS011;14871;52.702;5.230;2023-04-25T04:33:51;11.98;;;1.98;;
27412;SDS011;14871;52.702;5.230;2023-04-25T04:36:17;15.02;;;2.25;;
27412;SDS011;14871;52.702;5.230;2023-04-25T04:38:48;10.30;;;1.83;;
27412;SDS011;14871;52.702;5.230;2023-04-25T04:41:14;19.23;;;2.42;;
27412;SDS011;14871;52.702;5.230;2023-04-25T04:43:40;9.02;;;2.15;;
27412;SDS011;14871;52.702;5.230;2023-04-25T04:46:07;12.60;;;2.53;;
27412;SDS011;14871;52.702;5.230;2023-04-25T04:48:32;15.20;;;2.38;;
27412;SDS011;14871;52.702;5.230;2023-04-25T04:50:59;12.25;;;2.22;;
27412;SDS011;14871;52.702;5.230;2023-04-25T04:53:26;12.77;;;1.95;;
27412;SDS011;14871;52.702;5.230;2023-04-25T04:55:52;9.82;;;2.05;;
27412;SDS011;14871;52.702;5.230;2023-04-25T04:58:18;9.15;;;1.73;;
27412;SDS011;14871;52.702;5.230;2023-04-25T05:00:44;8.32;;;1.75;;
27412;SDS011;14871;52.702;5.230;2023-04-25T05:03:11;7.13;;;2.00;;
27412;SDS011;14871;52.702;5.230;2023-04-25T05:05:38;8.73;;;2.28;;
27412;SDS011;14871;52.702;5.230;2023-04-25T05:08:05;8.35;;;1.63;;
27412;SDS011;14871;52.702;5.230;2023-04-25T05:10:31;10.75;;;1.92;;
27412;SDS011;14871;52.702;5.230;2023-04-25T05:12:57;8.00;;;1.50;;
27412;SDS011;14871;52.702;5.230;2023-04-25T05:15:23;10.77;;;1.60;;
27412;SDS011;14871;52.702;5.230;2023-04-25T05:17:49;9.40;;;1.95;;
27412;SDS011;14871;52.702;5.230;2023-04-25T05:20:14;11.48;;;2.03;;
27412;SDS011;14871;52.702;5.230;2023-04-25T05:22:40;8.50;;;2.08;;
27412;SDS011;14871;52.702;5.230;2023-04-25T05:25:07;6.78;;;1.38;;
27412;SDS011;14871;52.702;5.230;2023-04-25T05:27:34;7.97;;;1.60;;
27412;SDS011;14871;52.702;5.230;2023-04-25T05:30:00;7.38;;;1.95;;
27412;SDS011;14871;52.702;5.230;2023-04-25T05:32:26;5.13;;;1.40;;
27412;SDS011;14871;52.702;5.230;2023-04-25T05:34:52;6.70;;;1.38;;
27412;SDS011;14871;52.702;5.230;2023-04-25T05:37:18;7.93;;;1.15;;
27412;SDS011;14871;52.702;5.230;2023-04-25T05:39:43;10.30;;;1.77;;
27412;SDS011;14871;52.702;5.230;2023-04-25T05:42:09;9.18;;;2.22;;
27412;SDS011;14871;52.702;5.230;2023-04-25T05:44:35;10.13;;;1.60;;
27412;SDS011;14871;52.702;5.230;2023-04-25T05:47:01;6.28;;;1.60;;
27412;SDS011;14871;52.702;5.230;2023-04-25T05:49:29;10.65;;;1.33;;
27412;SDS011;14871;52.702;5.230;2023-04-25T05:51:55;6.43;;;1.58;;
27412;SDS011;14871;52.702;5.230;2023-04-25T05:54:21;10.38;;;2.03;;
27412;SDS011;14871;52.702;5.230;2023-04-25T05:56:47;9.38;;;1.38;;
27412;SDS011;14871;52.702;5.230;2023-04-25T05:59:13;11.20;;;2.22;;
27412;SDS011;14871;52.702;5.230;2023-04-25T06:01:38;8.55;;;1.60;;
27412;SDS011;14871;52.702;5.230;2023-04-25T06:04:05;9.52;;;2.10;;
27412;SDS011;14871;52.702;5.230;2023-04-25T06:06:31;8.48;;;2.17;;
27412;SDS011;14871;52.702;5.230;2023-04-25T06:08:57;12.73;;;2.10;;
27412;SDS011;14871;52.702;5.230;2023-04-25T06:11:23;11.57;;;1.92;;
27412;SDS011;14871;52.702;5.230;2023-04-25T06:13:49;11.27;;;2.00;;
27412;SDS011;14871;52.702;5.230;2023-04-25T06:16:15;9.32;;;1.90;;
27412;SDS011;14871;52.702;5.230;2023-04-25T06:18:41;10.65;;;1.88;;
27412;SDS011;14871;52.702;5.230;2023-04-25T06:21:07;9.25;;;1.80;;
27412;SDS011;14871;52.702;5.230;2023-04-25T06:23:33;11.27;;;2.05;;
27412;SDS011;14871;52.702;5.230;2023-04-25T06:25:59;14.98;;;2.30;;
27412;SDS011;14871;52.702;5.230;2023-04-25T06:28:25;8.93;;;2.33;;
27412;SDS011;14871;52.702;5.230;2023-04-25T06:30:53;10.10;;;2.25;;
27412;SDS011;14871;52.702;5.230;2023-04-25T06:33:19;12.65;;;2.47;;
27412;SDS011;14871;52.702;5.230;2023-04-25T06:35:46;8.10;;;1.83;;
27412;SDS011;14871;52.702;5.230;2023-04-25T06:38:12;8.85;;;2.20;;
27412;SDS011;14871;52.702;5.230;2023-04-25T06:40:38;14.60;;;2.47;;
27412;SDS011;14871;52.702;5.230;2023-04-25T06:43:04;6.70;;;1.88;;
27412;SDS011;14871;52.702;5.230;2023-04-25T06:45:30;7.55;;;1.67;;
27412;SDS011;14871;52.702;5.230;2023-04-25T06:47:56;8.52;;;1.20;;
27412;SDS011;14871;52.702;5.230;2023-04-25T06:50:22;7.10;;;1.10;;
27412;SDS011;14871;52.702;5.230;2023-04-25T06:52:48;6.40;;;1.10;;
27412;SDS011;14871;52.702;5.230;2023-04-25T06:55:14;3.33;;;0.80;;
27412;SDS011;14871;52.702;5.230;2023-04-25T06:57:40;4.03;;;1.20;;
27412;SDS011;14871;52.702;5.230;2023-04-25T07:00:06;8.60;;;1.55;;
27412;SDS011;14871;52.702;5.230;2023-04-25T07:02:35;8.57;;;1.60;;
27412;SDS011;14871;52.702;5.230;2023-04-25T07:05:01;5.72;;;1.35;;
27412;SDS011;14871;52.702;5.230;2023-04-25T07:07:29;4.38;;;1.60;;
27412;SDS011;14871;52.702;5.230;2023-04-25T07:09:56;7.70;;;2.60;;
27412;SDS011;14871;52.702;5.230;2023-04-25T07:12:21;9.40;;;1.42;;
27412;SDS011;14871;52.702;5.230;2023-04-25T07:14:47;10.93;;;1.95;;
27412;SDS011;14871;52.702;5.230;2023-04-25T07:17:13;10.23;;;1.55;;
27412;SDS011;14871;52.702;5.230;2023-04-25T07:19:38;8.00;;;2.15;;
27412;SDS011;14871;52.702;5.230;2023-04-25T07:22:05;11.20;;;1.83;;
27412;SDS011;14871;52.702;5.230;2023-04-25T07:24:31;7.40;;;1.42;;
27412;SDS011;14871;52.702;5.230;2023-04-25T07:26:58;5.65;;;1.40;;
27412;SDS011;14871;52.702;5.230;2023-04-25T07:29:24;9.15;;;1.50;;
27412;SDS011;14871;52.702;5.230;2023-04-25T07:31:49;7.30;;;1.70;;
27412;SDS011;14871;52.702;5.230;2023-04-25T07:34:15;10.23;;;1.50;;
27412;SDS011;14871;52.702;5.230;2023-04-25T07:36:41;6.45;;;1.58;;
27412;SDS011;14871;52.702;5.230;2023-04-25T07:39:07;7.97;;;1.40;;
27412;SDS011;14871;52.702;5.230;2023-04-25T07:41:34;5.78;;;1.45;;
27412;SDS011;14871;52.702;5.230;2023-04-25T07:44:00;10.77;;;1.70;;
27412;SDS011;14871;52.702;5.230;2023-04-25T07:46:26;6.78;;;1.33;;
27412;SDS011;14871;52.702;5.230;2023-04-25T07:48:52;11.52;;;1.70;;
27412;SDS011;14871;52.702;5.230;2023-04-25T07:51:18;5.93;;;1.60;;
27412;SDS011;14871;52.702;5.230;2023-04-25T07:53:45;8.15;;;1.83;;
27412;SDS011;14871;52.702;5.230;2023-04-25T07:56:11;7.88;;;1.30;;
27412;SDS011;14871;52.702;5.230;2023-04-25T07:58:37;8.18;;;1.38;;
27412;SDS011;14871;52.702;5.230;2023-04-25T08:01:03;8.55;;;1.60;;
27412;SDS011;14871;52.702;5.230;2023-04-25T08:03:29;7.70;;;1.48;;
27412;SDS011;14871;52.702;5.230;2023-04-25T08:05:54;9.35;;;1.65;;
27412;SDS011;14871;52.702;5.230;2023-04-25T08:08:20;11.63;;;3.42;;
27412;SDS011;14871;52.702;5.230;2023-04-25T08:10:46;7.25;;;1.35;;
27412;SDS011;14871;52.702;5.230;2023-04-25T08:13:13;7.55;;;1.33;;
27412;SDS011;14871;52.702;5.230;2023-04-25T08:15:39;10.35;;;1.73;;
27412;SDS011;14871;52.702;5.230;2023-04-25T08:18:05;17.42;;;2.03;;
27412;SDS011;14871;52.702;5.230;2023-04-25T08:20:31;8.02;;;2.10;;
27412;SDS011;14871;52.702;5.230;2023-04-25T08:22:56;9.55;;;2.20;;
27412;SDS011;14871;52.702;5.230;2023-04-25T08:25:22;7.15;;;1.67;;
27412;SDS011;14871;52.702;5.230;2023-04-25T08:27:48;10.95;;;2.55;;
27412;SDS011;14871;52.702;5.230;2023-04-25T08:30:14;9.35;;;1.77;;
27412;SDS011;14871;52.702;5.230;2023-04-25T08:32:40;11.00;;;2.33;;
27412;SDS011;14871;52.702;5.230;2023-04-25T08:35:05;12.65;;;1.85;;
27412;SDS011;14871;52.702;5.230;2023-04-25T08:37:31;7.38;;;1.92;;
27412;SDS011;14871;52.702;5.230;2023-04-25T08:39:57;11.13;;;1.80;;
27412;SDS011;14871;52.702;5.230;2023-04-25T08:42:24;7.82;;;1.40;;
27412;SDS011;14871;52.702;5.230;2023-04-25T08:44:53;8.82;;;1.50;;
27412;SDS011;14871;52.702;5.230;2023-04-25T08:47:21;7.65;;;1.17;;
27412;SDS011;14871;52.702;5.230;2023-04-25T08:49:47;8.60;;;1.60;;
27412;SDS011;14871;52.702;5.230;2023-04-25T08:52:14;7.18;;;1.50;;
27412;SDS011;14871;52.702;5.230;2023-04-25T08:54:47;7.28;;;1.58;;
27412;SDS011;14871;52.702;5.230;2023-04-25T08:57:14;7.97;;;1.63;;
27412;SDS011;14871;52.702;5.230;2023-04-25T08:59:40;6.57;;;1.55;;
27412;SDS011;14871;52.702;5.230;2023-04-25T09:02:11;6.30;;;1.48;;
27412;SDS011;14871;52.702;5.230;2023-04-25T09:04:42;6.63;;;1.30;;
27412;SDS011;14871;52.702;5.230;2023-04-25T09:07:08;6.95;;;1.17;;
27412;SDS011;14871;52.702;5.230;2023-04-25T09:09:34;5.28;;;1.38;;
27412;SDS011;14871;52.702;5.230;2023-04-25T09:12:01;7.50;;;1.40;;
27412;SDS011;14871;52.702;5.230;2023-04-25T09:14:27;4.80;;;1.20;;
27412;SDS011;14871;52.702;5.230;2023-04-25T09:19:29;9.32;;;1.40;;
27412;SDS011;14871;52.702;5.230;2023-04-25T09:21:57;6.38;;;1.25;;
27412;SDS011;14871;52.702;5.230;2023-04-25T09:24:38;5.60;;;1.20;;
27412;SDS011;14871;52.702;5.230;2023-04-25T09:27:08;5.85;;;1.25;;
27412;SDS011;14871;52.702;5.230;2023-04-25T09:29:36;6.88;;;1.10;;
27412;SDS011;14871;52.702;5.230;2023-04-25T09:32:36;8.52;;;1.50;;
27412;SDS011;14871;52.702;5.230;2023-04-25T09:34:56;11.90;;;1.65;;
27412;SDS011;14871;52.702;5.230;2023-04-25T09:37:23;5.85;;;1.40;;
27412;SDS011;14871;52.702;5.230;2023-04-25T09:39:53;8.05;;;1.27;;
27412;SDS011;14871;52.702;5.230;2023-04-25T09:42:27;5.78;;;1.35;;
27412;SDS011;14871;52.702;5.230;2023-04-25T09:44:56;4.40;;;1.50;;
27412;SDS011;14871;52.702;5.230;2023-04-25T09:47:23;7.07;;;1.40;;
27412;SDS011;14871;52.702;5.230;2023-04-25T09:49:51;6.10;;;1.42;;
27412;SDS011;14871;52.702;5.230;2023-04-25T09:52:19;6.05;;;1.00;;
27412;SDS011;14871;52.702;5.230;2023-04-25T09:54:47;5.85;;;1.05;;
27412;SDS011;14871;52.702;5.230;2023-04-25T09:57:20;6.65;;;1.10;;
27412;SDS011;14871;52.702;5.230;2023-04-25T09:59:51;5.55;;;1.33;;
27412;SDS011;14871;52.702;5.230;2023-04-25T10:02:19;5.13;;;1.00;;
27412;SDS011;14871;52.702;5.230;2023-04-25T10:04:48;3.85;;;0.85;;
27412;SDS011;14871;52.702;5.230;2023-04-25T10:07:18;3.67;;;0.95;;
27412;SDS011;14871;52.702;5.230;2023-04-25T10:09:47;7.13;;;1.33;;
27412;SDS011;14871;52.702;5.230;2023-04-25T10:12:15;4.43;;;1.20;;
27412;SDS011;14871;52.702;5.230;2023-04-25T10:14:42;4.75;;;0.80;;
27412;SDS011;14871;52.702;5.230;2023-04-25T10:17:09;4.68;;;0.90;;
27412;SDS011;14871;52.702;5.230;2023-04-25T10:19:36;10.13;;;1.30;;
27412;SDS011;14871;52.702;5.230;2023-04-25T10:22:10;6.50;;;1.10;;
27412;SDS011;14871;52.702;5.230;2023-04-25T10:24:42;8.93;;;1.40;;
27412;SDS011;14871;52.702;5.230;2023-04-25T10:27:09;5.63;;;1.10;;
27412;SDS011;14871;52.702;5.230;2023-04-25T10:29:36;4.85;;;1.40;;
27412;SDS011;14871;52.702;5.230;2023-04-25T10:32:02;7.47;;;1.80;;
27412;SDS011;14871;52.702;5.230;2023-04-25T10:34:38;5.60;;;1.33;;
27412;SDS011;14871;52.702;5.230;2023-04-25T10:37:09;3.80;;;1.10;;
27412;SDS011;14871;52.702;5.230;2023-04-25T10:39:37;4.40;;;1.08;;
27412;SDS011;14871;52.702;5.230;2023-04-25T10:42:05;5.93;;;1.08;;
27412;SDS011;14871;52.702;5.230;2023-04-25T10:44:33;6.82;;;1.20;;
27412;SDS011;14871;52.702;5.230;2023-04-25T10:47:00;5.20;;;1.40;;
27412;SDS011;14871;52.702;5.230;2023-04-25T10:49:37;8.30;;;1.33;;
27412;SDS011;14871;52.702;5.230;2023-04-25T10:52:11;6.70;;;1.50;;
27412;SDS011;14871;52.702;5.230;2023-04-25T10:54:40;7.53;;;1.15;;
27412;SDS011;14871;52.702;5.230;2023-04-25T11:00:15;4.38;;;1.13;;
27412;SDS011;14871;52.702;5.230;2023-04-25T11:02:53;4.38;;;1.00;;
27412;SDS011;14871;52.702;5.230;2023-04-25T11:05:31;3.35;;;1.27;;
27412;SDS011;14871;52.702;5.230;2023-04-25T11:10:28;5.45;;;1.20;;
27412;SDS011;14871;52.702;5.230;2023-04-25T11:12:56;6.93;;;1.13;;
27412;SDS011;14871;52.702;5.230;2023-04-25T11:15:23;6.65;;;1.35;;
27412;SDS011;14871;52.702;5.230;2023-04-25T11:17:53;7.97;;;1.40;;
27412;SDS011;14871;52.702;5.230;2023-04-25T11:20:19;5.30;;;1.25;;
27412;SDS011;14871;52.702;5.230;2023-04-25T11:22:46;6.53;;;1.20;;
27412;SDS011;14871;52.702;5.230;2023-04-25T11:25:13;6.00;;;1.23;;
27412;SDS011;14871;52.702;5.230;2023-04-25T11:30:16;6.35;;;0.93;;
27412;SDS011;14871;52.702;5.230;2023-04-25T11:32:43;6.15;;;1.00;;
27412;SDS011;14871;52.702;5.230;2023-04-25T11:35:09;5.43;;;1.40;;
27412;SDS011;14871;52.702;5.230;2023-04-25T11:37:35;6.18;;;1.77;;
27412;SDS011;14871;52.702;5.230;2023-04-25T11:40:02;6.63;;;1.52;;
27412;SDS011;14871;52.702;5.230;2023-04-25T11:42:31;4.28;;;1.40;;
27412;SDS011;14871;52.702;5.230;2023-04-25T11:44:58;5.18;;;1.15;;
27412;SDS011;14871;52.702;5.230;2023-04-25T11:47:29;3.95;;;1.10;;
27412;SDS011;14871;52.702;5.230;2023-04-25T11:49:57;5.78;;;0.95;;
27412;SDS011;14871;52.702;5.230;2023-04-25T11:52:34;6.30;;;1.55;;
27412;SDS011;14871;52.702;5.230;2023-04-25T11:55:06;8.00;;;1.50;;
27412;SDS011;14871;52.702;5.230;2023-04-25T11:57:33;7.43;;;1.33;;
27412;SDS011;14871;52.702;5.230;2023-04-25T12:00:06;2.88;;;1.20;;
27412;SDS011;14871;52.702;5.230;2023-04-25T12:02:37;8.65;;;1.50;;
27412;SDS011;14871;52.702;5.230;2023-04-25T12:05:07;6.35;;;1.38;;
27412;SDS011;14871;52.702;5.230;2023-04-25T12:07:34;7.13;;;1.30;;
27412;SDS011;14871;52.702;5.230;2023-04-25T12:10:03;6.35;;;1.23;;
27412;SDS011;14871;52.702;5.230;2023-04-25T12:12:34;7.40;;;1.40;;
27412;SDS011;14871;52.702;5.230;2023-04-25T12:15:10;6.60;;;1.60;;
27412;SDS011;14871;52.702;5.230;2023-04-25T12:17:42;6.30;;;1.08;;
27412;SDS011;14871;52.702;5.230;2023-04-25T12:20:14;8.15;;;1.23;;
27412;SDS011;14871;52.702;5.230;2023-04-25T12:22:42;10.50;;;1.15;;
27412;SDS011;14871;52.702;5.230;2023-04-25T12:25:13;6.00;;;1.10;;
27412;SDS011;14871;52.702;5.230;2023-04-25T12:28:10;10.80;;;1.58;;
27412;SDS011;14871;52.702;5.230;2023-04-25T12:33:30;9.75;;;1.85;;
27412;SDS011;14871;52.702;5.230;2023-04-25T12:35:57;5.45;;;1.50;;
27412;SDS011;14871;52.702;5.230;2023-04-25T12:38:28;5.90;;;1.20;;
27412;SDS011;14871;52.702;5.230;2023-04-25T12:40:55;4.88;;;1.08;;
27412;SDS011;14871;52.702;5.230;2023-04-25T12:43:22;6.10;;;1.33;;
27412;SDS011;14871;52.702;5.230;2023-04-25T12:45:49;7.32;;;1.52;;
27412;SDS011;14871;52.702;5.230;2023-04-25T12:48:16;6.03;;;1.30;;
27412;SDS011;14871;52.702;5.230;2023-04-25T12:50:42;4.18;;;1.48;;
27412;SDS011;14871;52.702;5.230;2023-04-25T12:53:09;6.72;;;1.05;;
27412;SDS011;14871;52.702;5.230;2023-04-25T12:55:35;7.03;;;1.60;;
27412;SDS011;14871;52.702;5.230;2023-04-25T12:58:01;4.72;;;1.38;;
27412;SDS011;14871;52.702;5.230;2023-04-25T13:00:28;9.55;;;2.15;;
27412;SDS011;14871;52.702;5.230;2023-04-25T13:02:54;6.55;;;1.30;;
27412;SDS011;14871;52.702;5.230;2023-04-25T13:05:20;7.20;;;1.83;;
27412;SDS011;14871;52.702;5.230;2023-04-25T13:07:46;5.45;;;1.35;;
27412;SDS011;14871;52.702;5.230;2023-04-25T13:10:12;6.25;;;1.55;;
27412;SDS011;14871;52.702;5.230;2023-04-25T13:12:38;7.00;;;1.60;;
27412;SDS011;14871;52.702;5.230;2023-04-25T13:15:04;4.43;;;1.00;;
27412;SDS011;14871;52.702;5.230;2023-04-25T13:17:31;4.75;;;1.02;;
27412;SDS011;14871;52.702;5.230;2023-04-25T13:19:57;4.22;;;1.17;;
27412;SDS011;14871;52.702;5.230;2023-04-25T13:22:23;4.50;;;1.20;;
27412;SDS011;14871;52.702;5.230;2023-04-25T13:24:49;4.93;;;1.10;;
27412;SDS011;14871;52.702;5.230;2023-04-25T13:27:15;4.20;;;0.90;;
27412;SDS011;14871;52.702;5.230;2023-04-25T13:29:41;5.88;;;1.20;;
27412;SDS011;14871;52.702;5.230;2023-04-25T13:32:07;5.53;;;1.45;;
27412;SDS011;14871;52.702;5.230;2023-04-25T13:34:34;6.43;;;1.40;;
27412;SDS011;14871;52.702;5.230;2023-04-25T13:37:00;3.95;;;1.27;;
27412;SDS011;14871;52.702;5.230;2023-04-25T13:39:25;7.10;;;1.63;;
27412;SDS011;14871;52.702;5.230;2023-04-25T13:41:51;4.85;;;1.02;;
27412;SDS011;14871;52.702;5.230;2023-04-25T13:44:17;8.45;;;1.42;;
27412;SDS011;14871;52.702;5.230;2023-04-25T13:46:43;6.63;;;1.30;;
27412;SDS011;14871;52.702;5.230;2023-04-25T13:49:11;7.35;;;1.30;;
27412;SDS011;14871;52.702;5.230;2023-04-25T13:51:37;11.10;;;1.77;;
27412;SDS011;14871;52.702;5.230;2023-04-25T13:54:03;5.05;;;1.40;;
27412;SDS011;14871;52.702;5.230;2023-04-25T13:56:28;4.05;;;1.00;;
27412;SDS011;14871;52.702;5.230;2023-04-25T13:58:54;4.18;;;1.15;;
27412;SDS011;14871;52.702;5.230;2023-04-25T14:01:21;2.17;;;0.90;;
27412;SDS011;14871;52.702;5.230;2023-04-25T14:03:47;1.08;;;0.70;;
27412;SDS011;14871;52.702;5.230;2023-04-25T14:06:13;2.75;;;0.70;;
27412;SDS011;14871;52.702;5.230;2023-04-25T14:08:42;1.98;;;0.63;;
27412;SDS011;14871;52.702;5.230;2023-04-25T14:11:08;3.78;;;0.90;;
27412;SDS011;14871;52.702;5.230;2023-04-25T14:13:34;4.32;;;1.00;;
27412;SDS011;14871;52.702;5.230;2023-04-25T14:16:00;5.30;;;1.60;;
27412;SDS011;14871;52.702;5.230;2023-04-25T14:18:25;4.30;;;1.15;;
27412;SDS011;14871;52.702;5.230;2023-04-25T14:20:51;6.28;;;1.58;;
27412;SDS011;14871;52.702;5.230;2023-04-25T14:23:17;7.15;;;1.80;;
27412;SDS011;14871;52.702;5.230;2023-04-25T14:25:43;4.25;;;1.33;;
27412;SDS011;14871;52.702;5.230;2023-04-25T14:28:09;4.03;;;0.85;;
27412;SDS011;14871;52.702;5.230;2023-04-25T14:30:35;8.27;;;1.90;;
27412;SDS011;14871;52.702;5.230;2023-04-25T14:33:01;4.68;;;1.25;;
27412;SDS011;14871;52.702;5.230;2023-04-25T14:35:27;5.22;;;1.42;;
27412;SDS011;14871;52.702;5.230;2023-04-25T14:37:53;8.30;;;1.73;;
27412;SDS011;14871;52.702;5.230;2023-04-25T14:40:19;5.25;;;1.38;;
27412;SDS011;14871;52.702;5.230;2023-04-25T14:42:48;6.45;;;1.50;;
27412;SDS011;14871;52.702;5.230;2023-04-25T14:45:15;6.18;;;1.08;;
27412;SDS011;14871;52.702;5.230;2023-04-25T14:47:41;2.65;;;0.85;;
27412;SDS011;14871;52.702;5.230;2023-04-25T14:50:07;3.30;;;0.90;;
27412;SDS011;14871;52.702;5.230;2023-04-25T14:52:34;5.57;;;1.13;;
27412;SDS011;14871;52.702;5.230;2023-04-25T14:55:00;4.00;;;1.13;;